sensor_id;sensor_type;location;lat;lon;timestamp;P1;durP1;ratioP1;P2;durP2;ratioP2
71172;SDS011;58875;51.996;4.504;2024-02-14T00:01:48;17.32;;;17.32;;
71172;SDS011;58875;51.996;4.504;2024-02-14T00:04:14;17.78;;;17.78;;
71172;SDS011;58875;51.996;4.504;2024-02-14T00:06:39;17.98;;;17.98;;
71172;SDS011;58875;51.996;4.504;2024-02-14T00:09:05;18.34;;;18.31;;
71172;SDS011;58875;51.996;4.504;2024-02-14T00:11:32;18.74;;;18.73;;
71172;SDS011;58875;51.996;4.504;2024-02-14T00:13:57;18.68;;;18.68;;
71172;SDS011;58875;51.996;4.504;2024-02-14T00:16:25;18.77;;;18.77;;
71172;SDS011;58875;51.996;4.504;2024-02-14T00:18:50;19.11;;;19.11;;
71172;SDS011;58875;51.996;4.504;2024-02-14T00:21:16;18.93;;;18.93;;
71172;SDS011;58875;51.996;4.504;2024-02-14T00:23:41;18.75;;;18.72;;
71172;SDS011;58875;51.996;4.504;2024-02-14T00:26:07;18.60;;;18.60;;
71172;SDS011;58875;51.996;4.504;2024-02-14T00:28:32;19.01;;;19.01;;
71172;SDS011;58875;51.996;4.504;2024-02-14T00:30:58;18.46;;;18.46;;
71172;SDS011;58875;51.996;4.504;2024-02-14T00:33:24;18.90;;;18.90;;
71172;SDS011;58875;51.996;4.504;2024-02-14T00:35:49;18.06;;;18.06;;
71172;SDS011;58875;51.996;4.504;2024-02-14T00:38:15;17.87;;;17.87;;
71172;SDS011;58875;51.996;4.504;2024-02-14T00:40:40;17.60;;;17.58;;
71172;SDS011;58875;51.996;4.504;2024-02-14T00:43:06;17.20;;;17.17;;
71172;SDS011;58875;51.996;4.504;2024-02-14T00:45:31;16.87;;;16.87;;
71172;SDS011;58875;51.996;4.504;2024-02-14T00:47:57;17.25;;;17.25;;
71172;SDS011;58875;51.996;4.504;2024-02-14T00:50:22;17.41;;;17.41;;
71172;SDS011;58875;51.996;4.504;2024-02-14T00:52:49;17.35;;;17.35;;
71172;SDS011;58875;51.996;4.504;2024-02-14T00:55:14;16.42;;;16.40;;
71172;SDS011;58875;51.996;4.504;2024-02-14T00:57:40;16.35;;;16.15;;
71172;SDS011;58875;51.996;4.504;2024-02-14T01:00:06;16.02;;;15.99;;
71172;SDS011;58875;51.996;4.504;2024-02-14T01:02:32;17.00;;;17.00;;
71172;SDS011;58875;51.996;4.504;2024-02-14T01:04:57;17.42;;;17.39;;
71172;SDS011;58875;51.996;4.504;2024-02-14T01:07:23;17.89;;;17.89;;
71172;SDS011;58875;51.996;4.504;2024-02-14T01:09:49;18.48;;;18.42;;
71172;SDS011;58875;51.996;4.504;2024-02-14T01:12:15;17.93;;;17.88;;
71172;SDS011;58875;51.996;4.504;2024-02-14T01:14:42;17.74;;;17.73;;
71172;SDS011;58875;51.996;4.504;2024-02-14T01:17:07;17.72;;;17.71;;
71172;SDS011;58875;51.996;4.504;2024-02-14T01:19:33;19.77;;;19.63;;
71172;SDS011;58875;51.996;4.504;2024-02-14T01:21:59;19.07;;;19.05;;
71172;SDS011;58875;51.996;4.504;2024-02-14T01:24:24;19.73;;;19.42;;
71172;SDS011;58875;51.996;4.504;2024-02-14T01:26:54;18.76;;;18.75;;
71172;SDS011;58875;51.996;4.504;2024-02-14T01:29:20;18.95;;;18.95;;
71172;SDS011;58875;51.996;4.504;2024-02-14T01:31:46;19.74;;;19.73;;
71172;SDS011;58875;51.996;4.504;2024-02-14T01:34:12;19.58;;;19.53;;
71172;SDS011;58875;51.996;4.504;2024-02-14T01:36:37;19.28;;;19.28;;
71172;SDS011;58875;51.996;4.504;2024-02-14T01:39:04;19.91;;;19.89;;
71172;SDS011;58875;51.996;4.504;2024-02-14T01:41:32;19.45;;;19.27;;
71172;SDS011;58875;51.996;4.504;2024-02-14T01:43:58;18.13;;;18.13;;
71172;SDS011;58875;51.996;4.504;2024-02-14T01:46:24;17.73;;;17.73;;
71172;SDS011;58875;51.996;4.504;2024-02-14T01:48:50;17.26;;;17.26;;
71172;SDS011;58875;51.996;4.504;2024-02-14T01:51:16;16.99;;;16.99;;
71172;SDS011;58875;51.996;4.504;2024-02-14T01:53:49;16.48;;;16.48;;
71172;SDS011;58875;51.996;4.504;2024-02-14T01:56:16;16.08;;;16.08;;
71172;SDS011;58875;51.996;4.504;2024-02-14T01:58:42;15.96;;;15.96;;
71172;SDS011;58875;51.996;4.504;2024-02-14T02:01:09;15.26;;;15.26;;
71172;SDS011;58875;51.996;4.504;2024-02-14T02:03:36;14.69;;;14.69;;
71172;SDS011;58875;51.996;4.504;2024-02-14T02:06:02;15.04;;;15.04;;
71172;SDS011;58875;51.996;4.504;2024-02-14T02:08:30;16.08;;;16.08;;
71172;SDS011;58875;51.996;4.504;2024-02-14T02:10:57;15.45;;;15.45;;
71172;SDS011;58875;51.996;4.504;2024-02-14T02:13:23;16.11;;;16.11;;
71172;SDS011;58875;51.996;4.504;2024-02-14T02:15:51;17.02;;;17.02;;
71172;SDS011;58875;51.996;4.504;2024-02-14T02:18:18;17.36;;;17.36;;
71172;SDS011;58875;51.996;4.504;2024-02-14T02:20:44;18.26;;;18.26;;
71172;SDS011;58875;51.996;4.504;2024-02-14T02:23:13;18.76;;;18.75;;
71172;SDS011;58875;51.996;4.504;2024-02-14T02:25:42;18.26;;;18.26;;
71172;SDS011;58875;51.996;4.504;2024-02-14T02:28:08;18.84;;;18.84;;
71172;SDS011;58875;51.996;4.504;2024-02-14T02:30:34;17.36;;;17.34;;
71172;SDS011;58875;51.996;4.504;2024-02-14T02:33:00;18.21;;;18.07;;
71172;SDS011;58875;51.996;4.504;2024-02-14T02:35:27;19.12;;;18.96;;
71172;SDS011;58875;51.996;4.504;2024-02-14T02:37:53;19.25;;;19.25;;
71172;SDS011;58875;51.996;4.504;2024-02-14T02:40:19;18.78;;;18.78;;
71172;SDS011;58875;51.996;4.504;2024-02-14T02:42:46;19.11;;;19.08;;
71172;SDS011;58875;51.996;4.504;2024-02-14T02:45:12;17.64;;;17.64;;
71172;SDS011;58875;51.996;4.504;2024-02-14T02:47:38;17.16;;;17.16;;
71172;SDS011;58875;51.996;4.504;2024-02-14T02:50:05;16.47;;;16.47;;
71172;SDS011;58875;51.996;4.504;2024-02-14T02:52:31;15.90;;;15.90;;
71172;SDS011;58875;51.996;4.504;2024-02-14T02:54:57;15.68;;;15.68;;
71172;SDS011;58875;51.996;4.504;2024-02-14T02:57:22;16.07;;;16.07;;
71172;SDS011;58875;51.996;4.504;2024-02-14T02:59:48;15.22;;;15.20;;
71172;SDS011;58875;51.996;4.504;2024-02-14T03:02:14;15.43;;;15.43;;
71172;SDS011;58875;51.996;4.504;2024-02-14T03:04:40;14.82;;;14.82;;
71172;SDS011;58875;51.996;4.504;2024-02-14T03:07:07;14.04;;;14.04;;
71172;SDS011;58875;51.996;4.504;2024-02-14T03:09:37;13.91;;;13.91;;
71172;SDS011;58875;51.996;4.504;2024-02-14T03:12:03;14.25;;;14.23;;
71172;SDS011;58875;51.996;4.504;2024-02-14T03:14:32;13.53;;;13.50;;
71172;SDS011;58875;51.996;4.504;2024-02-14T03:16:59;13.91;;;13.90;;
71172;SDS011;58875;51.996;4.504;2024-02-14T03:19:25;13.56;;;13.56;;
71172;SDS011;58875;51.996;4.504;2024-02-14T03:21:52;13.52;;;13.43;;
71172;SDS011;58875;51.996;4.504;2024-02-14T03:24:18;13.15;;;13.15;;
71172;SDS011;58875;51.996;4.504;2024-02-14T03:26:44;12.83;;;12.83;;
71172;SDS011;58875;51.996;4.504;2024-02-14T03:29:10;12.47;;;12.46;;
71172;SDS011;58875;51.996;4.504;2024-02-14T03:31:35;13.07;;;13.07;;
71172;SDS011;58875;51.996;4.504;2024-02-14T03:34:01;13.18;;;13.18;;
71172;SDS011;58875;51.996;4.504;2024-02-14T03:36:27;12.76;;;12.76;;
71172;SDS011;58875;51.996;4.504;2024-02-14T03:38:56;12.97;;;12.97;;
71172;SDS011;58875;51.996;4.504;2024-02-14T03:41:23;12.53;;;12.52;;
71172;SDS011;58875;51.996;4.504;2024-02-14T03:43:49;13.09;;;13.09;;
71172;SDS011;58875;51.996;4.504;2024-02-14T03:46:15;12.75;;;12.74;;
71172;SDS011;58875;51.996;4.504;2024-02-14T03:48:43;11.72;;;11.71;;
71172;SDS011;58875;51.996;4.504;2024-02-14T03:51:09;11.52;;;11.52;;
71172;SDS011;58875;51.996;4.504;2024-02-14T03:53:34;11.25;;;11.25;;
71172;SDS011;58875;51.996;4.504;2024-02-14T03:56:00;11.98;;;11.96;;
71172;SDS011;58875;51.996;4.504;2024-02-14T03:58:26;11.64;;;11.61;;
71172;SDS011;58875;51.996;4.504;2024-02-14T04:00:51;11.78;;;11.78;;
71172;SDS011;58875;51.996;4.504;2024-02-14T04:03:17;12.80;;;12.77;;
71172;SDS011;58875;51.996;4.504;2024-02-14T04:05:43;12.46;;;12.46;;
71172;SDS011;58875;51.996;4.504;2024-02-14T04:08:10;12.16;;;12.16;;
71172;SDS011;58875;51.996;4.504;2024-02-14T04:10:36;12.61;;;12.60;;
71172;SDS011;58875;51.996;4.504;2024-02-14T04:13:03;12.34;;;12.33;;
71172;SDS011;58875;51.996;4.504;2024-02-14T04:15:30;11.92;;;11.91;;
71172;SDS011;58875;51.996;4.504;2024-02-14T04:17:56;11.37;;;11.36;;
71172;SDS011;58875;51.996;4.504;2024-02-14T04:20:21;11.94;;;11.94;;
71172;SDS011;58875;51.996;4.504;2024-02-14T04:22:47;12.05;;;12.05;;
71172;SDS011;58875;51.996;4.504;2024-02-14T04:25:12;11.72;;;11.71;;
71172;SDS011;58875;51.996;4.504;2024-02-14T04:27:38;12.00;;;12.00;;
71172;SDS011;58875;51.996;4.504;2024-02-14T04:30:03;11.97;;;11.94;;
71172;SDS011;58875;51.996;4.504;2024-02-14T04:32:30;12.28;;;12.25;;
71172;SDS011;58875;51.996;4.504;2024-02-14T04:34:55;12.79;;;12.78;;
71172;SDS011;58875;51.996;4.504;2024-02-14T04:37:21;12.68;;;12.61;;
71172;SDS011;58875;51.996;4.504;2024-02-14T04:39:47;12.56;;;12.55;;
71172;SDS011;58875;51.996;4.504;2024-02-14T04:42:13;12.78;;;12.76;;
71172;SDS011;58875;51.996;4.504;2024-02-14T04:44:38;12.92;;;12.90;;
71172;SDS011;58875;51.996;4.504;2024-02-14T04:47:04;13.50;;;13.48;;
71172;SDS011;58875;51.996;4.504;2024-02-14T04:49:30;13.63;;;13.49;;
71172;SDS011;58875;51.996;4.504;2024-02-14T04:51:56;13.72;;;13.68;;
71172;SDS011;58875;51.996;4.504;2024-02-14T04:54:22;13.13;;;13.13;;
71172;SDS011;58875;51.996;4.504;2024-02-14T04:56:48;12.39;;;12.31;;
71172;SDS011;58875;51.996;4.504;2024-02-14T04:59:14;13.44;;;13.32;;
71172;SDS011;58875;51.996;4.504;2024-02-14T05:01:39;12.07;;;12.07;;
71172;SDS011;58875;51.996;4.504;2024-02-14T05:04:08;10.60;;;10.60;;
71172;SDS011;58875;51.996;4.504;2024-02-14T05:06:34;11.06;;;11.04;;
71172;SDS011;58875;51.996;4.504;2024-02-14T05:08:59;10.72;;;10.61;;
71172;SDS011;58875;51.996;4.504;2024-02-14T05:11:25;9.84;;;9.81;;
71172;SDS011;58875;51.996;4.504;2024-02-14T05:13:50;9.80;;;9.79;;
71172;SDS011;58875;51.996;4.504;2024-02-14T05:16:19;8.70;;;8.70;;
71172;SDS011;58875;51.996;4.504;2024-02-14T05:18:45;8.20;;;8.20;;
71172;SDS011;58875;51.996;4.504;2024-02-14T05:21:11;7.80;;;7.78;;
71172;SDS011;58875;51.996;4.504;2024-02-14T05:23:37;7.79;;;7.77;;
71172;SDS011;58875;51.996;4.504;2024-02-14T05:26:03;7.91;;;7.89;;
71172;SDS011;58875;51.996;4.504;2024-02-14T05:28:29;8.12;;;8.08;;
71172;SDS011;58875;51.996;4.504;2024-02-14T05:30:59;8.63;;;8.63;;
71172;SDS011;58875;51.996;4.504;2024-02-14T05:33:25;9.93;;;9.90;;
71172;SDS011;58875;51.996;4.504;2024-02-14T05:35:51;11.04;;;10.95;;
71172;SDS011;58875;51.996;4.504;2024-02-14T05:38:18;11.37;;;11.37;;
71172;SDS011;58875;51.996;4.504;2024-02-14T05:40:47;12.22;;;12.21;;
71172;SDS011;58875;51.996;4.504;2024-02-14T05:43:13;12.97;;;12.95;;
71172;SDS011;58875;51.996;4.504;2024-02-14T05:45:39;13.57;;;13.34;;
71172;SDS011;58875;51.996;4.504;2024-02-14T05:48:05;14.25;;;14.04;;
71172;SDS011;58875;51.996;4.504;2024-02-14T05:50:31;15.00;;;14.61;;
71172;SDS011;58875;51.996;4.504;2024-02-14T05:52:57;16.41;;;15.99;;
71172;SDS011;58875;51.996;4.504;2024-02-14T05:55:23;16.58;;;16.03;;
71172;SDS011;58875;51.996;4.504;2024-02-14T05:57:52;16.85;;;16.67;;
71172;SDS011;58875;51.996;4.504;2024-02-14T06:00:19;17.37;;;17.14;;
71172;SDS011;58875;51.996;4.504;2024-02-14T06:02:46;17.37;;;17.12;;
71172;SDS011;58875;51.996;4.504;2024-02-14T06:05:13;18.64;;;18.22;;
71172;SDS011;58875;51.996;4.504;2024-02-14T06:07:39;19.00;;;18.52;;
71172;SDS011;58875;51.996;4.504;2024-02-14T06:10:06;18.35;;;17.95;;
71172;SDS011;58875;51.996;4.504;2024-02-14T06:12:33;17.95;;;17.74;;
71172;SDS011;58875;51.996;4.504;2024-02-14T06:15:00;18.19;;;17.92;;
71172;SDS011;58875;51.996;4.504;2024-02-14T06:17:25;18.40;;;18.19;;
71172;SDS011;58875;51.996;4.504;2024-02-14T06:19:54;18.06;;;17.83;;
71172;SDS011;58875;51.996;4.504;2024-02-14T06:22:20;18.57;;;18.27;;
71172;SDS011;58875;51.996;4.504;2024-02-14T06:24:46;18.04;;;17.80;;
71172;SDS011;58875;51.996;4.504;2024-02-14T06:27:15;18.88;;;18.55;;
71172;SDS011;58875;51.996;4.504;2024-02-14T06:29:41;19.17;;;18.98;;
71172;SDS011;58875;51.996;4.504;2024-02-14T06:32:08;19.68;;;19.50;;
71172;SDS011;58875;51.996;4.504;2024-02-14T06:34:33;20.11;;;19.81;;
71172;SDS011;58875;51.996;4.504;2024-02-14T06:36:59;21.99;;;21.41;;
71172;SDS011;58875;51.996;4.504;2024-02-14T06:39:24;20.61;;;20.56;;
71172;SDS011;58875;51.996;4.504;2024-02-14T06:41:50;20.14;;;20.04;;
71172;SDS011;58875;51.996;4.504;2024-02-14T06:44:15;20.93;;;20.56;;
71172;SDS011;58875;51.996;4.504;2024-02-14T06:46:41;21.29;;;21.06;;
71172;SDS011;58875;51.996;4.504;2024-02-14T06:49:07;22.38;;;21.99;;
71172;SDS011;58875;51.996;4.504;2024-02-14T06:51:34;22.74;;;22.25;;
71172;SDS011;58875;51.996;4.504;2024-02-14T06:53:59;22.32;;;21.77;;
71172;SDS011;58875;51.996;4.504;2024-02-14T06:56:25;22.44;;;21.87;;
71172;SDS011;58875;51.996;4.504;2024-02-14T06:58:50;21.55;;;21.28;;
71172;SDS011;58875;51.996;4.504;2024-02-14T07:01:18;21.38;;;21.14;;
71172;SDS011;58875;51.996;4.504;2024-02-14T07:03:48;20.81;;;20.39;;
71172;SDS011;58875;51.996;4.504;2024-02-14T07:06:13;21.01;;;20.63;;
71172;SDS011;58875;51.996;4.504;2024-02-14T07:08:43;19.85;;;19.56;;
71172;SDS011;58875;51.996;4.504;2024-02-14T07:11:08;19.48;;;19.05;;
71172;SDS011;58875;51.996;4.504;2024-02-14T07:13:34;18.17;;;18.07;;
71172;SDS011;58875;51.996;4.504;2024-02-14T07:15:59;18.58;;;18.42;;
71172;SDS011;58875;51.996;4.504;2024-02-14T07:18:25;19.03;;;18.89;;
71172;SDS011;58875;51.996;4.504;2024-02-14T07:20:51;19.74;;;19.22;;
71172;SDS011;58875;51.996;4.504;2024-02-14T07:23:18;19.44;;;19.11;;
71172;SDS011;58875;51.996;4.504;2024-02-14T07:25:44;19.99;;;19.70;;
71172;SDS011;58875;51.996;4.504;2024-02-14T07:28:10;19.10;;;18.88;;
71172;SDS011;58875;51.996;4.504;2024-02-14T07:30:36;18.73;;;18.63;;
71172;SDS011;58875;51.996;4.504;2024-02-14T07:33:02;19.11;;;18.79;;
71172;SDS011;58875;51.996;4.504;2024-02-14T07:35:27;18.82;;;18.29;;
71172;SDS011;58875;51.996;4.504;2024-02-14T07:37:54;17.89;;;17.80;;
71172;SDS011;58875;51.996;4.504;2024-02-14T07:40:20;18.70;;;18.37;;
71172;SDS011;58875;51.996;4.504;2024-02-14T07:42:46;18.02;;;17.95;;
71172;SDS011;58875;51.996;4.504;2024-02-14T07:45:11;17.78;;;17.61;;
71172;SDS011;58875;51.996;4.504;2024-02-14T07:47:37;19.34;;;18.92;;
71172;SDS011;58875;51.996;4.504;2024-02-14T07:50:05;18.84;;;18.62;;
71172;SDS011;58875;51.996;4.504;2024-02-14T07:52:31;18.84;;;18.57;;
71172;SDS011;58875;51.996;4.504;2024-02-14T07:54:57;19.49;;;19.19;;
71172;SDS011;58875;51.996;4.504;2024-02-14T07:57:22;18.39;;;18.22;;
71172;SDS011;58875;51.996;4.504;2024-02-14T07:59:50;17.61;;;17.28;;
71172;SDS011;58875;51.996;4.504;2024-02-14T08:02:21;16.94;;;16.60;;
71172;SDS011;58875;51.996;4.504;2024-02-14T08:04:47;16.18;;;16.05;;
71172;SDS011;58875;51.996;4.504;2024-02-14T08:07:12;15.15;;;15.10;;
71172;SDS011;58875;51.996;4.504;2024-02-14T08:09:38;13.82;;;13.81;;
71172;SDS011;58875;51.996;4.504;2024-02-14T08:12:04;12.14;;;12.11;;
71172;SDS011;58875;51.996;4.504;2024-02-14T08:14:31;11.24;;;11.14;;
71172;SDS011;58875;51.996;4.504;2024-02-14T08:16:56;10.09;;;10.09;;
71172;SDS011;58875;51.996;4.504;2024-02-14T08:19:26;9.94;;;9.94;;
71172;SDS011;58875;51.996;4.504;2024-02-14T08:21:51;10.31;;;10.31;;
71172;SDS011;58875;51.996;4.504;2024-02-14T08:24:17;11.13;;;11.13;;
71172;SDS011;58875;51.996;4.504;2024-02-14T08:26:42;11.18;;;11.18;;
71172;SDS011;58875;51.996;4.504;2024-02-14T08:29:08;14.01;;;13.84;;
71172;SDS011;58875;51.996;4.504;2024-02-14T08:31:35;17.03;;;16.71;;
71172;SDS011;58875;51.996;4.504;2024-02-14T08:34:00;17.94;;;17.80;;
71172;SDS011;58875;51.996;4.504;2024-02-14T08:36:26;17.55;;;17.48;;
71172;SDS011;58875;51.996;4.504;2024-02-14T08:38:51;19.45;;;19.04;;
71172;SDS011;58875;51.996;4.504;2024-02-14T08:41:17;20.10;;;19.91;;
71172;SDS011;58875;51.996;4.504;2024-02-14T08:43:43;20.38;;;20.20;;
71172;SDS011;58875;51.996;4.504;2024-02-14T08:46:09;21.55;;;21.00;;
71172;SDS011;58875;51.996;4.504;2024-02-14T08:48:37;22.65;;;22.03;;
71172;SDS011;58875;51.996;4.504;2024-02-14T08:51:07;22.71;;;22.19;;
71172;SDS011;58875;51.996;4.504;2024-02-14T08:53:34;23.08;;;22.80;;
71172;SDS011;58875;51.996;4.504;2024-02-14T08:56:01;23.73;;;23.13;;
71172;SDS011;58875;51.996;4.504;2024-02-14T08:58:27;23.37;;;22.89;;
71172;SDS011;58875;51.996;4.504;2024-02-14T09:00:52;23.32;;;22.59;;
71172;SDS011;58875;51.996;4.504;2024-02-14T09:03:19;22.57;;;21.85;;
71172;SDS011;58875;51.996;4.504;2024-02-14T09:05:45;20.82;;;20.63;;
71172;SDS011;58875;51.996;4.504;2024-02-14T09:08:11;21.05;;;20.65;;
71172;SDS011;58875;51.996;4.504;2024-02-14T09:10:38;20.67;;;20.22;;
71172;SDS011;58875;51.996;4.504;2024-02-14T09:13:04;19.55;;;19.05;;
71172;SDS011;58875;51.996;4.504;2024-02-14T09:15:29;17.22;;;16.91;;
71172;SDS011;58875;51.996;4.504;2024-02-14T09:17:56;15.56;;;15.56;;
71172;SDS011;58875;51.996;4.504;2024-02-14T09:20:22;14.93;;;14.91;;
71172;SDS011;58875;51.996;4.504;2024-02-14T09:22:48;13.80;;;13.80;;
71172;SDS011;58875;51.996;4.504;2024-02-14T09:25:13;13.41;;;13.37;;
71172;SDS011;58875;51.996;4.504;2024-02-14T09:27:39;12.62;;;12.62;;
71172;SDS011;58875;51.996;4.504;2024-02-14T09:30:06;12.79;;;12.79;;
71172;SDS011;58875;51.996;4.504;2024-02-14T09:32:33;12.67;;;12.67;;
71172;SDS011;58875;51.996;4.504;2024-02-14T09:34:59;13.32;;;13.32;;
71172;SDS011;58875;51.996;4.504;2024-02-14T09:37:25;13.04;;;13.04;;
71172;SDS011;58875;51.996;4.504;2024-02-14T09:39:51;13.21;;;13.21;;
71172;SDS011;58875;51.996;4.504;2024-02-14T09:42:19;13.09;;;13.09;;
71172;SDS011;58875;51.996;4.504;2024-02-14T09:45:24;13.43;;;13.43;;
71172;SDS011;58875;51.996;4.504;2024-02-14T09:47:51;13.49;;;13.49;;
71172;SDS011;58875;51.996;4.504;2024-02-14T09:50:18;13.62;;;13.59;;
71172;SDS011;58875;51.996;4.504;2024-02-14T09:52:48;13.35;;;13.26;;
71172;SDS011;58875;51.996;4.504;2024-02-14T09:55:15;13.42;;;13.22;;
71172;SDS011;58875;51.996;4.504;2024-02-14T09:57:42;12.71;;;12.60;;
71172;SDS011;58875;51.996;4.504;2024-02-14T10:00:11;11.42;;;11.34;;
71172;SDS011;58875;51.996;4.504;2024-02-14T10:02:40;10.45;;;10.45;;
71172;SDS011;58875;51.996;4.504;2024-02-14T10:05:06;9.60;;;9.55;;
71172;SDS011;58875;51.996;4.504;2024-02-14T10:07:41;9.52;;;9.48;;
71172;SDS011;58875;51.996;4.504;2024-02-14T10:10:09;8.58;;;8.58;;
71172;SDS011;58875;51.996;4.504;2024-02-14T10:12:35;7.51;;;7.51;;
71172;SDS011;58875;51.996;4.504;2024-02-14T10:15:01;7.07;;;7.07;;
71172;SDS011;58875;51.996;4.504;2024-02-14T10:17:27;7.15;;;7.15;;
71172;SDS011;58875;51.996;4.504;2024-02-14T10:19:59;7.50;;;7.50;;
71172;SDS011;58875;51.996;4.504;2024-02-14T10:22:34;7.27;;;7.27;;
71172;SDS011;58875;51.996;4.504;2024-02-14T10:25:03;6.98;;;6.98;;
71172;SDS011;58875;51.996;4.504;2024-02-14T10:27:35;7.09;;;7.09;;
71172;SDS011;58875;51.996;4.504;2024-02-14T10:30:05;6.82;;;6.82;;
71172;SDS011;58875;51.996;4.504;2024-02-14T10:32:35;7.09;;;7.09;;
71172;SDS011;58875;51.996;4.504;2024-02-14T10:35:12;6.83;;;6.83;;
71172;SDS011;58875;51.996;4.504;2024-02-14T10:37:39;6.54;;;6.54;;
71172;SDS011;58875;51.996;4.504;2024-02-14T10:40:05;6.86;;;6.86;;
71172;SDS011;58875;51.996;4.504;2024-02-14T10:42:31;7.32;;;7.32;;
71172;SDS011;58875;51.996;4.504;2024-02-14T10:44:57;8.06;;;8.06;;
71172;SDS011;58875;51.996;4.504;2024-02-14T10:47:31;8.27;;;8.27;;
71172;SDS011;58875;51.996;4.504;2024-02-14T10:50:00;8.76;;;8.75;;
71172;SDS011;58875;51.996;4.504;2024-02-14T10:52:31;9.01;;;9.01;;
71172;SDS011;58875;51.996;4.504;2024-02-14T10:55:01;9.24;;;9.24;;
71172;SDS011;58875;51.996;4.504;2024-02-14T10:57:30;9.26;;;9.26;;
71172;SDS011;58875;51.996;4.504;2024-02-14T11:00:05;8.97;;;8.97;;
71172;SDS011;58875;51.996;4.504;2024-02-14T11:02:34;8.99;;;8.99;;
71172;SDS011;58875;51.996;4.504;2024-02-14T11:05:03;9.85;;;9.85;;
71172;SDS011;58875;51.996;4.504;2024-02-14T11:07:29;9.83;;;9.82;;
71172;SDS011;58875;51.996;4.504;2024-02-14T11:12:34;9.32;;;9.17;;
71172;SDS011;58875;51.996;4.504;2024-02-14T11:15:02;8.69;;;8.69;;
71172;SDS011;58875;51.996;4.504;2024-02-14T11:17:44;8.40;;;8.38;;
71172;SDS011;58875;51.996;4.504;2024-02-14T11:20:14;8.37;;;8.37;;
71172;SDS011;58875;51.996;4.504;2024-02-14T11:22:49;8.07;;;8.07;;
71172;SDS011;58875;51.996;4.504;2024-02-14T11:25:17;7.88;;;7.88;;
71172;SDS011;58875;51.996;4.504;2024-02-14T11:27:47;8.06;;;8.06;;
71172;SDS011;58875;51.996;4.504;2024-02-14T11:30:12;8.11;;;8.10;;
71172;SDS011;58875;51.996;4.504;2024-02-14T11:32:40;7.63;;;7.63;;
71172;SDS011;58875;51.996;4.504;2024-02-14T11:35:07;7.64;;;7.64;;
71172;SDS011;58875;51.996;4.504;2024-02-14T11:37:37;7.39;;;7.37;;
71172;SDS011;58875;51.996;4.504;2024-02-14T11:40:03;7.93;;;7.93;;
71172;SDS011;58875;51.996;4.504;2024-02-14T11:42:29;7.59;;;7.59;;
71172;SDS011;58875;51.996;4.504;2024-02-14T11:44:56;7.42;;;7.42;;
71172;SDS011;58875;51.996;4.504;2024-02-14T11:47:22;6.96;;;6.96;;
71172;SDS011;58875;51.996;4.504;2024-02-14T11:49:48;7.20;;;7.20;;
71172;SDS011;58875;51.996;4.504;2024-02-14T11:52:14;6.99;;;6.99;;
71172;SDS011;58875;51.996;4.504;2024-02-14T11:54:39;7.28;;;7.28;;
71172;SDS011;58875;51.996;4.504;2024-02-14T11:57:10;7.14;;;7.14;;
71172;SDS011;58875;51.996;4.504;2024-02-14T11:59:36;7.20;;;7.14;;
71172;SDS011;58875;51.996;4.504;2024-02-14T12:02:01;7.51;;;7.51;;
71172;SDS011;58875;51.996;4.504;2024-02-14T12:04:28;7.23;;;7.23;;
71172;SDS011;58875;51.996;4.504;2024-02-14T12:06:54;7.65;;;7.65;;
71172;SDS011;58875;51.996;4.504;2024-02-14T12:09:20;7.91;;;7.91;;
71172;SDS011;58875;51.996;4.504;2024-02-14T12:11:46;8.08;;;8.08;;
71172;SDS011;58875;51.996;4.504;2024-02-14T12:14:12;7.79;;;7.79;;
71172;SDS011;58875;51.996;4.504;2024-02-14T12:16:38;8.09;;;8.09;;
71172;SDS011;58875;51.996;4.504;2024-02-14T12:19:16;7.68;;;7.68;;
71172;SDS011;58875;51.996;4.504;2024-02-14T12:21:42;7.64;;;7.64;;
71172;SDS011;58875;51.996;4.504;2024-02-14T12:24:10;8.30;;;8.30;;
71172;SDS011;58875;51.996;4.504;2024-02-14T12:26:39;8.35;;;8.35;;
71172;SDS011;58875;51.996;4.504;2024-02-14T12:29:07;7.73;;;7.73;;
71172;SDS011;58875;51.996;4.504;2024-02-14T12:31:35;7.43;;;7.43;;
71172;SDS011;58875;51.996;4.504;2024-02-14T12:34:02;7.06;;;7.06;;
71172;SDS011;58875;51.996;4.504;2024-02-14T12:36:30;7.34;;;7.34;;
71172;SDS011;58875;51.996;4.504;2024-02-14T12:38:56;7.57;;;7.57;;
71172;SDS011;58875;51.996;4.504;2024-02-14T12:41:22;7.26;;;7.26;;
71172;SDS011;58875;51.996;4.504;2024-02-14T12:43:51;7.21;;;7.21;;
71172;SDS011;58875;51.996;4.504;2024-02-14T12:46:20;7.05;;;7.05;;
71172;SDS011;58875;51.996;4.504;2024-02-14T12:48:45;7.83;;;7.83;;
71172;SDS011;58875;51.996;4.504;2024-02-14T12:51:11;7.87;;;7.87;;
71172;SDS011;58875;51.996;4.504;2024-02-14T12:53:36;8.46;;;8.46;;
71172;SDS011;58875;51.996;4.504;2024-02-14T12:56:02;9.11;;;9.11;;
71172;SDS011;58875;51.996;4.504;2024-02-14T12:58:30;10.28;;;10.28;;
71172;SDS011;58875;51.996;4.504;2024-02-14T13:00:57;11.83;;;11.72;;
71172;SDS011;58875;51.996;4.504;2024-02-14T13:03:24;12.06;;;11.98;;
71172;SDS011;58875;51.996;4.504;2024-02-14T13:05:50;12.74;;;12.53;;
71172;SDS011;58875;51.996;4.504;2024-02-14T13:08:18;12.47;;;12.35;;
71172;SDS011;58875;51.996;4.504;2024-02-14T13:10:44;12.78;;;12.71;;
71172;SDS011;58875;51.996;4.504;2024-02-14T13:13:10;12.90;;;12.90;;
71172;SDS011;58875;51.996;4.504;2024-02-14T13:15:36;13.77;;;13.54;;
71172;SDS011;58875;51.996;4.504;2024-02-14T13:18:01;12.85;;;12.76;;
71172;SDS011;58875;51.996;4.504;2024-02-14T13:20:28;13.52;;;13.27;;
71172;SDS011;58875;51.996;4.504;2024-02-14T13:22:54;12.23;;;12.21;;
71172;SDS011;58875;51.996;4.504;2024-02-14T13:25:20;12.29;;;12.24;;
71172;SDS011;58875;51.996;4.504;2024-02-14T13:27:46;12.09;;;12.07;;
71172;SDS011;58875;51.996;4.504;2024-02-14T13:30:12;11.56;;;11.56;;
71172;SDS011;58875;51.996;4.504;2024-02-14T13:32:38;11.65;;;11.65;;
71172;SDS011;58875;51.996;4.504;2024-02-14T13:35:04;11.76;;;11.75;;
71172;SDS011;58875;51.996;4.504;2024-02-14T13:37:33;11.86;;;11.86;;
71172;SDS011;58875;51.996;4.504;2024-02-14T13:40:00;11.30;;;11.30;;
71172;SDS011;58875;51.996;4.504;2024-02-14T13:42:29;10.54;;;10.54;;
71172;SDS011;58875;51.996;4.504;2024-02-14T13:44:55;9.13;;;9.13;;
71172;SDS011;58875;51.996;4.504;2024-02-14T13:47:21;7.94;;;7.94;;
71172;SDS011;58875;51.996;4.504;2024-02-14T13:49:48;6.77;;;6.77;;
71172;SDS011;58875;51.996;4.504;2024-02-14T13:54:48;5.70;;;5.70;;
71172;SDS011;58875;51.996;4.504;2024-02-14T13:57:13;5.50;;;5.50;;
71172;SDS011;58875;51.996;4.504;2024-02-14T13:59:39;5.15;;;5.15;;
71172;SDS011;58875;51.996;4.504;2024-02-14T14:02:04;5.87;;;5.87;;
71172;SDS011;58875;51.996;4.504;2024-02-14T14:04:30;5.86;;;5.86;;
71172;SDS011;58875;51.996;4.504;2024-02-14T14:06:55;5.78;;;5.78;;
71172;SDS011;58875;51.996;4.504;2024-02-14T14:09:22;5.93;;;5.93;;
71172;SDS011;58875;51.996;4.504;2024-02-14T14:11:47;5.46;;;5.46;;
71172;SDS011;58875;51.996;4.504;2024-02-14T14:14:16;4.86;;;4.86;;
71172;SDS011;58875;51.996;4.504;2024-02-14T14:16:46;4.47;;;4.47;;
71172;SDS011;58875;51.996;4.504;2024-02-14T14:19:12;3.97;;;3.97;;
71172;SDS011;58875;51.996;4.504;2024-02-14T14:21:38;3.78;;;3.78;;
71172;SDS011;58875;51.996;4.504;2024-02-14T14:24:04;3.95;;;3.95;;
71172;SDS011;58875;51.996;4.504;2024-02-14T14:26:29;3.88;;;3.88;;
71172;SDS011;58875;51.996;4.504;2024-02-14T14:28:55;4.15;;;4.15;;
71172;SDS011;58875;51.996;4.504;2024-02-14T14:31:20;3.92;;;3.92;;